Time;durP1;ratioP1;P1;durP2;ratioP2;P2;SDS_P1;SDS_P2;PMS_P1;PMS_P2;Temp;Humidity;BMP_temperature;BMP_pressure;BME280_temperature;BME280_humidity;BME280_pressure;Samples;Min_cycle;Max_cycle;Signal;HPM_P1;HPM_P2
2024/01/31 00:01:22;;;;;;;16.35;3.30;;;;;;;;;;5003122;28;20025;-47
2024/01/31 00:03:47;;;;;;;14.00;2.70;;;;;;;;;;4991615;28;20093;-46
2024/01/31 00:06:13;;;;;;;17.50;2.70;;;;;;;;;;4999760;28;20022;-46
2024/01/31 00:08:38;;;;;;;14.68;2.60;;;;;;;;;;4994748;28;20022;-49
2024/01/31 00:11:03;;;;;;;13.65;2.60;;;;;;;;;;4997423;28;20428;-48
2024/01/31 00:13:29;;;;;;;19.77;2.97;;;;;;;;;;5003002;28;20025;-49
2024/01/31 00:15:54;;;;;;;12.10;2.60;;;;;;;;;;5007202;28;21113;-49
2024/01/31 00:18:19;;;;;;;13.35;2.63;;;;;;;;;;5000095;28;20030;-46
2024/01/31 00:20:44;;;;;;;11.33;2.67;;;;;;;;;;4991510;28;20538;-48
2024/01/31 00:23:10;;;;;;;14.63;2.53;;;;;;;;;;4998114;28;20286;-47
2024/01/31 00:25:35;;;;;;;16.43;2.70;;;;;;;;;;5010751;28;20272;-47
2024/01/31 00:28:00;;;;;;;13.83;2.70;;;;;;;;;;5002740;28;20038;-46
2024/01/31 00:30:25;;;;;;;14.63;2.40;;;;;;;;;;4995408;28;20030;-48
2024/01/31 00:32:50;;;;;;;16.87;2.73;;;;;;;;;;4995838;28;20081;-46
2024/01/31 00:35:15;;;;;;;13.57;2.57;;;;;;;;;;5001893;28;20253;-50
2024/01/31 00:37:41;;;;;;;12.32;2.28;;;;;;;;;;5006791;28;20386;-51
2024/01/31 00:40:06;;;;;;;9.90;2.03;;;;;;;;;;5001532;28;20014;-47
2024/01/31 00:42:32;;;;;;;11.95;2.50;;;;;;;;;;4990934;28;20661;-45
2024/01/31 00:44:57;;;;;;;15.40;2.30;;;;;;;;;;5002245;28;20080;-46
2024/01/31 00:47:22;;;;;;;10.02;2.08;;;;;;;;;;4991344;28;20035;-45
2024/01/31 00:49:47;;;;;;;10.43;2.20;;;;;;;;;;4998650;28;20058;-45
2024/01/31 00:52:12;;;;;;;12.93;2.60;;;;;;;;;;5000915;28;20015;-46
2024/01/31 00:54:37;;;;;;;14.95;2.75;;;;;;;;;;4997887;28;20173;-44
2024/01/31 00:57:03;;;;;;;14.03;2.67;;;;;;;;;;5003034;28;20089;-46
2024/01/31 00:59:28;;;;;;;12.68;2.30;;;;;;;;;;4995042;28;20322;-45
2024/01/31 01:01:53;;;;;;;14.40;2.20;;;;;;;;;;5005583;28;20122;-48
2024/01/31 01:04:18;;;;;;;10.80;2.27;;;;;;;;;;4994377;28;20026;-45
2024/01/31 01:06:43;;;;;;;14.45;2.47;;;;;;;;;;5003397;28;20026;-45
2024/01/31 01:09:09;;;;;;;12.33;2.60;;;;;;;;;;4995331;28;20077;-46
2024/01/31 01:11:34;;;;;;;9.97;2.40;;;;;;;;;;4998042;28;20308;-50
2024/01/31 01:13:59;;;;;;;15.88;2.67;;;;;;;;;;5002555;28;20030;-46
2024/01/31 01:16:24;;;;;;;19.57;3.00;;;;;;;;;;4997133;28;20080;-47
2024/01/31 01:18:49;;;;;;;15.43;2.87;;;;;;;;;;5003362;28;20062;-46
2024/01/31 01:21:14;;;;;;;16.40;2.93;;;;;;;;;;4994626;28;20455;-47
2024/01/31 01:23:40;;;;;;;16.13;2.70;;;;;;;;;;5005785;28;20288;-46
2024/01/31 01:26:05;;;;;;;12.87;2.37;;;;;;;;;;4994485;28;20269;-46
2024/01/31 01:28:30;;;;;;;11.90;2.30;;;;;;;;;;5001401;28;20331;-46
2024/01/31 01:30:55;;;;;;;16.65;2.60;;;;;;;;;;5013711;28;20815;-46
2024/01/31 01:33:20;;;;;;;12.83;2.53;;;;;;;;;;5006554;28;20029;-48
2024/01/31 01:35:46;;;;;;;10.40;2.03;;;;;;;;;;5002484;28;20748;-49
2024/01/31 01:38:11;;;;;;;15.57;2.40;;;;;;;;;;4995132;28;20284;-45
2024/01/31 01:40:42;;;;;;;8.80;2.03;;;;;;;;;;5004407;28;20261;-45
2024/01/31 01:43:13;;;;;;;14.65;2.60;;;;;;;;;;4993638;28;20027;-47
2024/01/31 01:45:38;;;;;;;15.25;2.58;;;;;;;;;;5000017;28;20076;-47
2024/01/31 01:48:04;;;;;;;13.30;2.73;;;;;;;;;;5013454;28;20030;-45
2024/01/31 01:50:29;;;;;;;10.50;2.58;;;;;;;;;;5005724;28;20029;-47
2024/01/31 01:52:54;;;;;;;14.88;2.50;;;;;;;;;;4998306;28;20451;-47
2024/01/31 01:55:19;;;;;;;13.60;2.70;;;;;;;;;;4996994;28;20493;-45
2024/01/31 01:57:45;;;;;;;13.13;2.70;;;;;;;;;;5002031;28;20122;-46
2024/01/31 02:00:10;;;;;;;10.90;2.63;;;;;;;;;;4994546;28;20894;-48
2024/01/31 02:02:36;;;;;;;14.15;2.65;;;;;;;;;;5007263;28;20026;-46
2024/01/31 02:05:01;;;;;;;11.23;2.40;;;;;;;;;;4993448;28;20034;-46
2024/01/31 02:07:26;;;;;;;13.75;2.63;;;;;;;;;;5003594;28;20036;-47
2024/01/31 02:09:53;;;;;;;14.98;2.88;;;;;;;;;;4993328;28;20117;-46
2024/01/31 02:12:18;;;;;;;12.38;2.53;;;;;;;;;;4999581;28;20117;-45
2024/01/31 02:14:44;;;;;;;12.63;2.72;;;;;;;;;;4998871;28;20105;-46
2024/01/31 02:17:09;;;;;;;13.95;2.70;;;;;;;;;;4996344;28;20084;-47
2024/01/31 02:19:35;;;;;;;14.30;2.77;;;;;;;;;;5004890;28;20041;-47
2024/01/31 02:22:01;;;;;;;13.23;2.80;;;;;;;;;;5009994;28;21271;-46
2024/01/31 02:24:26;;;;;;;14.70;2.80;;;;;;;;;;5003651;28;20041;-50
2024/01/31 02:26:52;;;;;;;12.10;2.30;;;;;;;;;;4992816;28;20117;-46
2024/01/31 02:29:17;;;;;;;6.73;2.30;;;;;;;;;;4998743;28;20107;-47
2024/01/31 02:31:42;;;;;;;7.30;2.37;;;;;;;;;;5010364;28;20281;-47
2024/01/31 02:34:07;;;;;;;12.67;2.30;;;;;;;;;;5005155;28;20277;-46
2024/01/31 02:36:32;;;;;;;11.93;2.33;;;;;;;;;;5004672;28;20046;-45
2024/01/31 02:38:57;;;;;;;14.23;2.87;;;;;;;;;;5007877;28;20277;-48
2024/01/31 02:41:23;;;;;;;14.20;2.73;;;;;;;;;;5001232;28;20269;-46
2024/01/31 02:43:50;;;;;;;14.87;3.00;;;;;;;;;;4992997;28;20030;-48
2024/01/31 02:46:15;;;;;;;14.38;3.22;;;;;;;;;;5003873;28;20033;-46
2024/01/31 02:48:40;;;;;;;10.13;2.30;;;;;;;;;;4992600;28;20026;-49
2024/01/31 02:51:05;;;;;;;9.47;2.20;;;;;;;;;;5000902;28;20912;-46
2024/01/31 02:53:30;;;;;;;11.33;2.03;;;;;;;;;;5001209;28;20061;-48
2024/01/31 02:55:55;;;;;;;13.60;2.43;;;;;;;;;;5003956;28;20522;-47
2024/01/31 02:58:21;;;;;;;14.27;2.30;;;;;;;;;;5008384;28;20347;-52
2024/01/31 03:00:46;;;;;;;11.48;2.50;;;;;;;;;;5008548;28;20026;-47
2024/01/31 03:03:11;;;;;;;12.87;3.07;;;;;;;;;;5002073;28;20022;-50
2024/01/31 03:05:36;;;;;;;8.70;2.10;;;;;;;;;;4990693;28;20129;-48
2024/01/31 03:08:01;;;;;;;7.60;2.03;;;;;;;;;;5003939;28;20293;-49
2024/01/31 03:10:27;;;;;;;10.07;1.80;;;;;;;;;;4992122;28;20592;-48
2024/01/31 03:12:52;;;;;;;12.23;2.30;;;;;;;;;;4997335;28;20022;-46
2024/01/31 03:15:17;;;;;;;12.03;2.40;;;;;;;;;;5011608;28;20372;-50
2024/01/31 03:17:42;;;;;;;11.60;2.17;;;;;;;;;;5005302;28;20910;-47
2024/01/31 03:20:09;;;;;;;11.02;2.53;;;;;;;;;;5000441;28;20033;-48
2024/01/31 03:22:34;;;;;;;14.60;3.10;;;;;;;;;;4992711;28;20105;-49
2024/01/31 03:24:59;;;;;;;12.98;2.72;;;;;;;;;;5002704;28;20102;-46
2024/01/31 03:27:25;;;;;;;11.60;2.50;;;;;;;;;;4991846;28;20023;-48
2024/01/31 03:29:50;;;;;;;14.27;2.42;;;;;;;;;;5002927;28;20297;-47
2024/01/31 03:32:15;;;;;;;10.60;2.30;;;;;;;;;;4993128;28;20466;-48
2024/01/31 03:34:40;;;;;;;9.33;2.33;;;;;;;;;;4997420;28;20289;-47
2024/01/31 03:37:05;;;;;;;15.23;2.63;;;;;;;;;;4998669;28;20265;-50
2024/01/31 03:39:31;;;;;;;9.00;2.30;;;;;;;;;;4995433;28;20752;-50
2024/01/31 03:41:56;;;;;;;13.90;2.80;;;;;;;;;;5000750;28;20265;-49
2024/01/31 03:44:22;;;;;;;11.87;2.83;;;;;;;;;;4994953;28;20018;-48
2024/01/31 03:46:47;;;;;;;14.73;3.10;;;;;;;;;;5002751;28;21141;-46
2024/01/31 03:49:12;;;;;;;11.43;2.53;;;;;;;;;;4991415;28;20292;-47
2024/01/31 03:51:37;;;;;;;11.10;2.80;;;;;;;;;;5000692;28;20354;-47
2024/01/31 03:54:03;;;;;;;12.53;2.67;;;;;;;;;;4994375;28;20057;-45
2024/01/31 03:56:28;;;;;;;9.73;2.50;;;;;;;;;;4996389;28;20337;-48
2024/01/31 03:58:54;;;;;;;14.43;3.00;;;;;;;;;;4999825;28;20382;-47
2024/01/31 04:01:19;;;;;;;13.07;3.13;;;;;;;;;;5005291;28;20292;-46
2024/01/31 04:03:44;;;;;;;12.70;2.60;;;;;;;;;;5000578;28;20266;-47
2024/01/31 04:06:10;;;;;;;13.07;3.00;;;;;;;;;;4991305;28;20481;-45
2024/01/31 04:08:35;;;;;;;12.13;3.28;;;;;;;;;;5002472;28;20018;-44
2024/01/31 04:11:01;;;;;;;13.93;3.00;;;;;;;;;;4991195;28;20061;-45
2024/01/31 04:13:26;;;;;;;12.32;2.88;;;;;;;;;;4998936;28;20433;-45
2024/01/31 04:15:52;;;;;;;12.23;2.83;;;;;;;;;;4995201;28;20101;-45
2024/01/31 04:18:17;;;;;;;13.70;2.60;;;;;;;;;;4994987;28;20773;-45
2024/01/31 04:20:42;;;;;;;14.13;2.80;;;;;;;;;;4999209;28;20050;-49
2024/01/31 04:23:07;;;;;;;15.95;3.75;;;;;;;;;;4996574;28;20783;-46
2024/01/31 04:25:33;;;;;;;11.55;2.63;;;;;;;;;;5005553;28;20418;-47
2024/01/31 04:27:58;;;;;;;16.48;3.42;;;;;;;;;;5011481;28;20018;-45
2024/01/31 04:30:23;;;;;;;15.03;3.30;;;;;;;;;;5005663;28;20072;-45
2024/01/31 04:32:49;;;;;;;12.33;3.20;;;;;;;;;;4995140;28;20386;-47
2024/01/31 04:35:14;;;;;;;17.27;3.50;;;;;;;;;;5005522;28;20458;-46
2024/01/31 04:37:39;;;;;;;16.30;3.40;;;;;;;;;;5006574;28;20398;-47
2024/01/31 04:40:04;;;;;;;15.07;3.63;;;;;;;;;;5005874;28;20033;-48
2024/01/31 04:42:30;;;;;;;14.77;3.40;;;;;;;;;;5013685;28;20466;-46
2024/01/31 04:44:55;;;;;;;13.10;3.33;;;;;;;;;;5009913;28;20106;-50
2024/01/31 04:47:22;;;;;;;14.33;3.43;;;;;;;;;;5003208;28;20394;-47
2024/01/31 04:49:47;;;;;;;12.18;3.00;;;;;;;;;;4995636;28;20059;-47
2024/01/31 04:52:12;;;;;;;15.10;3.50;;;;;;;;;;5006330;28;20032;-45
2024/01/31 04:54:39;;;;;;;16.90;3.50;;;;;;;;;;4994972;28;20292;-46
2024/01/31 04:57:04;;;;;;;14.23;3.60;;;;;;;;;;5004139;28;20022;-44
2024/01/31 04:59:29;;;;;;;16.35;3.55;;;;;;;;;;4997276;28;20033;-45
2024/01/31 05:01:55;;;;;;;14.83;3.50;;;;;;;;;;4998357;28;20077;-44
2024/01/31 05:04:20;;;;;;;12.18;3.40;;;;;;;;;;5002912;28;20261;-47
2024/01/31 05:06:46;;;;;;;16.97;3.93;;;;;;;;;;4997369;28;20030;-46
2024/01/31 05:09:11;;;;;;;16.40;4.07;;;;;;;;;;5003521;28;20030;-45
2024/01/31 05:11:36;;;;;;;17.67;3.83;;;;;;;;;;4994527;28;20362;-46
2024/01/31 05:14:01;;;;;;;17.37;3.70;;;;;;;;;;5006311;28;20018;-47
2024/01/31 05:16:26;;;;;;;18.53;4.10;;;;;;;;;;4994486;28;20357;-46
2024/01/31 05:18:51;;;;;;;17.63;3.90;;;;;;;;;;5001867;28;20280;-46
2024/01/31 05:21:17;;;;;;;15.20;3.95;;;;;;;;;;4998612;28;20268;-48
2024/01/31 05:23:42;;;;;;;18.87;4.33;;;;;;;;;;4997411;28;20014;-47
2024/01/31 05:26:08;;;;;;;17.73;4.18;;;;;;;;;;5003112;28;20442;-46
2024/01/31 05:28:33;;;;;;;17.17;4.20;;;;;;;;;;4995807;28;20478;-46
2024/01/31 05:30:58;;;;;;;17.80;4.18;;;;;;;;;;5004730;28;20030;-45
2024/01/31 05:33:24;;;;;;;18.03;4.20;;;;;;;;;;4994149;28;20123;-46
2024/01/31 05:35:49;;;;;;;19.70;4.55;;;;;;;;;;5004381;28;20434;-49
2024/01/31 05:38:14;;;;;;;20.10;4.47;;;;;;;;;;4997254;28;20029;-47
2024/01/31 05:40:39;;;;;;;20.00;4.80;;;;;;;;;;5002744;28;20746;-47
2024/01/31 05:43:04;;;;;;;17.55;4.40;;;;;;;;;;4995368;28;20297;-46
2024/01/31 05:45:29;;;;;;;19.95;4.80;;;;;;;;;;5005358;28;20450;-50
2024/01/31 05:47:55;;;;;;;19.73;4.83;;;;;;;;;;4994450;28;20533;-49
2024/01/31 05:50:20;;;;;;;22.63;4.80;;;;;;;;;;5004572;28;20117;-51
2024/01/31 05:52:45;;;;;;;19.50;4.83;;;;;;;;;;4996195;28;20117;-50
2024/01/31 05:55:14;;;;;;;20.57;5.43;;;;;;;;;;4999398;28;20510;-47
2024/01/31 05:57:39;;;;;;;23.50;5.72;;;;;;;;;;4999184;28;20276;-45
2024/01/31 06:00:09;;;;;;;21.53;5.60;;;;;;;;;;4996890;28;20393;-48
2024/01/31 06:02:34;;;;;;;20.27;5.47;;;;;;;;;;5002470;28;20585;-46
2024/01/31 06:04:59;;;;;;;24.30;6.17;;;;;;;;;;4994902;28;20078;-45
2024/01/31 06:07:24;;;;;;;20.43;5.70;;;;;;;;;;5001189;28;20014;-49
2024/01/31 06:09:49;;;;;;;23.80;7.15;;;;;;;;;;5002301;28;20753;-47
2024/01/31 06:12:15;;;;;;;21.60;6.10;;;;;;;;;;5002954;28;20029;-45
2024/01/31 06:14:40;;;;;;;22.23;6.47;;;;;;;;;;4996273;28;20015;-46
2024/01/31 06:17:05;;;;;;;20.23;6.43;;;;;;;;;;4997954;28;20030;-44
2024/01/31 06:19:31;;;;;;;23.80;7.18;;;;;;;;;;5001244;28;20041;-44
2024/01/31 06:21:56;;;;;;;25.40;8.18;;;;;;;;;;4996888;28;20030;-45
2024/01/31 06:24:21;;;;;;;26.27;8.10;;;;;;;;;;5002858;28;20026;-45
2024/01/31 06:26:46;;;;;;;23.17;8.07;;;;;;;;;;5011857;28;20808;-45
2024/01/31 06:29:17;;;;;;;23.92;7.68;;;;;;;;;;5004868;28;20304;-46
2024/01/31 06:31:46;;;;;;;23.45;7.97;;;;;;;;;;4993147;28;20031;-46
2024/01/31 06:34:11;;;;;;;27.65;8.95;;;;;;;;;;4999534;28;20034;-48
2024/01/31 06:36:38;;;;;;;24.48;8.55;;;;;;;;;;5009713;28;20079;-46
2024/01/31 06:39:03;;;;;;;25.40;9.15;;;;;;;;;;5004344;28;20497;-45
2024/01/31 06:41:28;;;;;;;28.73;10.20;;;;;;;;;;5000689;28;20018;-45
2024/01/31 06:43:54;;;;;;;25.30;9.20;;;;;;;;;;4995587;28;20019;-47
2024/01/31 06:46:19;;;;;;;25.38;9.63;;;;;;;;;;5001374;28;20030;-52
2024/01/31 06:48:44;;;;;;;28.95;9.98;;;;;;;;;;4992553;28;20030;-47
2024/01/31 06:51:09;;;;;;;27.97;10.73;;;;;;;;;;5002473;28;20036;-48
2024/01/31 06:53:34;;;;;;;26.40;9.38;;;;;;;;;;4991704;28;20054;-48
2024/01/31 06:56:00;;;;;;;30.30;8.70;;;;;;;;;;4997715;28;20022;-50
2024/01/31 06:58:25;;;;;;;25.77;8.48;;;;;;;;;;4996004;28;20269;-47
2024/01/31 07:00:54;;;;;;;26.23;9.40;;;;;;;;;;4995007;28;20030;-49
2024/01/31 07:03:19;;;;;;;24.30;8.32;;;;;;;;;;4998321;28;20015;-49
2024/01/31 07:05:44;;;;;;;23.25;8.63;;;;;;;;;;4992658;28;20046;-49
2024/01/31 07:08:09;;;;;;;28.23;8.60;;;;;;;;;;5001547;28;20581;-47
2024/01/31 07:10:35;;;;;;;28.43;9.13;;;;;;;;;;4991127;28;20745;-47
2024/01/31 07:13:00;;;;;;;27.23;8.95;;;;;;;;;;5002329;28;20272;-47
2024/01/31 07:15:25;;;;;;;28.15;9.65;;;;;;;;;;4991457;28;20442;-46
2024/01/31 07:17:50;;;;;;;27.27;9.17;;;;;;;;;;4996805;28;20033;-45
2024/01/31 07:20:15;;;;;;;29.57;10.90;;;;;;;;;;4996705;28;20703;-46
2024/01/31 07:22:40;;;;;;;29.05;10.90;;;;;;;;;;4994069;28;20277;-45
2024/01/31 07:25:10;;;;;;;29.43;10.30;;;;;;;;;;4997983;28;20499;-46
2024/01/31 07:27:38;;;;;;;31.00;11.88;;;;;;;;;;4992154;28;20084;-46
2024/01/31 07:30:03;;;;;;;32.92;11.73;;;;;;;;;;5001262;28;20030;-49
2024/01/31 07:32:28;;;;;;;30.33;12.40;;;;;;;;;;4990649;28;20462;-51
2024/01/31 07:34:53;;;;;;;32.70;12.67;;;;;;;;;;5001088;28;20112;-49
2024/01/31 07:37:18;;;;;;;29.63;11.73;;;;;;;;;;4991543;28;21072;-46
2024/01/31 07:39:44;;;;;;;29.20;11.43;;;;;;;;;;4995307;28;20106;-45
2024/01/31 07:42:09;;;;;;;31.98;12.13;;;;;;;;;;4996967;28;20096;-45
2024/01/31 07:44:35;;;;;;;28.42;11.70;;;;;;;;;;4993594;28;20105;-45
2024/01/31 07:47:03;;;;;;;29.33;11.93;;;;;;;;;;5000182;28;20030;-47
2024/01/31 07:49:29;;;;;;;31.13;12.07;;;;;;;;;;4993115;28;20033;-47
2024/01/31 07:51:56;;;;;;;32.53;12.90;;;;;;;;;;5003263;28;20331;-48
2024/01/31 07:54:22;;;;;;;31.23;11.98;;;;;;;;;;4991871;28;20116;-47
2024/01/31 07:56:47;;;;;;;29.83;12.27;;;;;;;;;;5001759;28;20030;-47
2024/01/31 07:59:12;;;;;;;32.23;12.63;;;;;;;;;;4993467;28;20034;-46
2024/01/31 08:01:37;;;;;;;33.10;13.13;;;;;;;;;;4998154;28;20112;-49
2024/01/31 08:04:03;;;;;;;35.77;12.57;;;;;;;;;;5003669;28;20111;-46
2024/01/31 08:06:28;;;;;;;31.98;13.10;;;;;;;;;;5007516;28;20022;-50
2024/01/31 08:08:54;;;;;;;33.85;13.90;;;;;;;;;;5000232;28;20040;-49
2024/01/31 08:11:19;;;;;;;33.97;14.37;;;;;;;;;;5003150;28;20509;-53
2024/01/31 08:13:44;;;;;;;29.87;13.53;;;;;;;;;;5003216;28;20276;-48
2024/01/31 08:16:10;;;;;;;34.00;13.57;;;;;;;;;;4991008;28;20293;-48
2024/01/31 08:18:36;;;;;;;30.77;13.73;;;;;;;;;;4999942;28;20288;-50
2024/01/31 08:21:02;;;;;;;31.73;15.05;;;;;;;;;;4995099;28;20125;-50
2024/01/31 08:23:27;;;;;;;33.28;14.43;;;;;;;;;;4994073;28;20496;-49
2024/01/31 08:25:52;;;;;;;32.07;13.90;;;;;;;;;;4998447;28;20505;-48
2024/01/31 08:28:18;;;;;;;33.03;14.38;;;;;;;;;;4992066;28;20089;-45
2024/01/31 08:30:43;;;;;;;34.37;13.80;;;;;;;;;;4997961;28;20026;-46
2024/01/31 08:33:08;;;;;;;30.27;14.60;;;;;;;;;;4997639;28;20792;-45
2024/01/31 08:35:33;;;;;;;32.83;14.27;;;;;;;;;;4993921;28;20327;-45
2024/01/31 08:37:59;;;;;;;31.52;13.73;;;;;;;;;;4999909;28;20402;-46
2024/01/31 08:40:24;;;;;;;36.67;15.00;;;;;;;;;;4991626;28;20029;-49
2024/01/31 08:42:49;;;;;;;36.80;14.88;;;;;;;;;;5000959;28;20378;-50
2024/01/31 08:45:14;;;;;;;35.97;15.82;;;;;;;;;;4990540;28;20019;-46
2024/01/31 08:47:39;;;;;;;33.73;14.87;;;;;;;;;;5000973;28;20088;-47
2024/01/31 08:50:05;;;;;;;32.72;15.38;;;;;;;;;;4990758;28;20270;-47
2024/01/31 08:52:30;;;;;;;34.90;15.05;;;;;;;;;;4997526;28;20474;-45
2024/01/31 08:54:55;;;;;;;39.75;19.05;;;;;;;;;;5003090;28;20050;-46
2024/01/31 08:57:20;;;;;;;40.17;18.43;;;;;;;;;;5003142;28;20076;-47
2024/01/31 08:59:46;;;;;;;37.20;14.73;;;;;;;;;;5006612;28;20276;-46
2024/01/31 09:02:11;;;;;;;34.40;15.40;;;;;;;;;;5002081;28;20165;-46
2024/01/31 09:04:36;;;;;;;33.97;15.02;;;;;;;;;;4998414;28;20326;-45
2024/01/31 09:07:01;;;;;;;35.27;14.63;;;;;;;;;;5009726;28;20018;-47
2024/01/31 09:09:26;;;;;;;35.70;15.97;;;;;;;;;;5001179;28;20788;-46
2024/01/31 09:11:52;;;;;;;34.07;15.67;;;;;;;;;;4993006;28;20282;-46
2024/01/31 09:14:17;;;;;;;37.60;16.35;;;;;;;;;;4996880;28;20368;-44
2024/01/31 09:16:42;;;;;;;36.07;15.97;;;;;;;;;;4999406;28;20141;-46
2024/01/31 09:19:09;;;;;;;35.87;16.00;;;;;;;;;;4994613;28;20269;-46
2024/01/31 09:21:35;;;;;;;35.75;16.77;;;;;;;;;;5001123;28;20270;-47
2024/01/31 09:24:00;;;;;;;37.97;16.63;;;;;;;;;;4992771;28;20108;-47
2024/01/31 09:26:26;;;;;;;38.25;17.42;;;;;;;;;;5003404;28;20073;-47
2024/01/31 09:28:51;;;;;;;40.88;15.63;;;;;;;;;;5008323;28;20052;-45
2024/01/31 09:31:20;;;;;;;37.70;16.42;;;;;;;;;;5003883;28;20030;-46
2024/01/31 09:33:45;;;;;;;40.35;17.25;;;;;;;;;;4994570;28;20027;-47
2024/01/31 09:36:10;;;;;;;37.70;16.50;;;;;;;;;;4996071;28;20030;-49
2024/01/31 09:38:35;;;;;;;35.97;16.03;;;;;;;;;;5000075;28;20276;-46
2024/01/31 09:41:01;;;;;;;42.43;17.20;;;;;;;;;;4995150;28;20058;-45
2024/01/31 09:43:26;;;;;;;39.33;17.27;;;;;;;;;;5000582;28;20333;-48
2024/01/31 09:45:53;;;;;;;42.42;17.33;;;;;;;;;;4992214;28;20419;-49
2024/01/31 09:48:19;;;;;;;41.88;17.73;;;;;;;;;;5003411;28;20030;-46
2024/01/31 09:50:44;;;;;;;42.63;17.95;;;;;;;;;;4991955;28;20039;-48
2024/01/31 09:53:10;;;;;;;40.47;18.23;;;;;;;;;;4999776;28;20032;-48
2024/01/31 09:55:35;;;;;;;42.10;17.80;;;;;;;;;;4995806;28;20034;-47
2024/01/31 09:58:04;;;;;;;38.35;17.48;;;;;;;;;;4993379;28;20038;-48
2024/01/31 10:00:29;;;;;;;38.22;17.20;;;;;;;;;;4998806;28;20022;-46
2024/01/31 10:02:55;;;;;;;42.30;19.67;;;;;;;;;;4994080;28;20832;-47
2024/01/31 10:05:20;;;;;;;42.25;18.27;;;;;;;;;;5001138;28;20014;-45
2024/01/31 10:07:45;;;;;;;40.10;18.47;;;;;;;;;;4991286;28;20502;-46
2024/01/31 10:10:10;;;;;;;42.03;17.53;;;;;;;;;;5003482;28;20037;-49
2024/01/31 10:12:36;;;;;;;40.80;17.77;;;;;;;;;;4991561;28;20474;-50
2024/01/31 10:15:02;;;;;;;39.20;18.63;;;;;;;;;;5002948;28;20808;-49
2024/01/31 10:17:27;;;;;;;39.72;17.90;;;;;;;;;;5008205;28;20021;-55
2024/01/31 10:19:52;;;;;;;37.13;17.00;;;;;;;;;;5003122;28;20438;-52
2024/01/31 10:22:17;;;;;;;38.50;17.67;;;;;;;;;;4999408;28;20074;-50
2024/01/31 10:24:48;;;;;;;40.45;17.25;;;;;;;;;;4996339;28;20030;-47
2024/01/31 10:27:14;;;;;;;39.38;17.63;;;;;;;;;;4991041;28;20032;-49
2024/01/31 10:29:39;;;;;;;37.28;16.95;;;;;;;;;;4991186;28;20026;-48
2024/01/31 10:32:05;;;;;;;37.20;16.88;;;;;;;;;;4990892;28;20022;-50
2024/01/31 10:34:32;;;;;;;35.38;16.10;;;;;;;;;;4990980;28;20037;-48
2024/01/31 10:36:58;;;;;;;33.17;14.20;;;;;;;;;;4990927;28;20496;-48
2024/01/31 10:39:23;;;;;;;32.28;13.57;;;;;;;;;;4990884;28;20026;-50
2024/01/31 10:41:49;;;;;;;34.58;14.50;;;;;;;;;;4990614;28;20033;-48
2024/01/31 10:44:15;;;;;;;32.40;14.30;;;;;;;;;;4990906;28;20041;-50
2024/01/31 10:46:41;;;;;;;30.98;13.43;;;;;;;;;;4991261;28;20018;-47
2024/01/31 10:49:06;;;;;;;29.60;13.02;;;;;;;;;;4991826;28;20557;-48
2024/01/31 10:51:33;;;;;;;31.92;13.63;;;;;;;;;;4991552;28;20041;-50
2024/01/31 10:53:59;;;;;;;29.45;12.45;;;;;;;;;;4991673;28;20567;-49
2024/01/31 10:56:25;;;;;;;31.23;12.88;;;;;;;;;;5007523;28;20053;-49
2024/01/31 10:58:51;;;;;;;28.45;12.48;;;;;;;;;;5003367;28;20053;-49
2024/01/31 11:01:16;;;;;;;33.08;13.88;;;;;;;;;;4994813;28;20044;-49
2024/01/31 11:03:45;;;;;;;29.13;12.55;;;;;;;;;;4992425;28;20014;-47
2024/01/31 11:06:10;;;;;;;30.80;12.88;;;;;;;;;;4999787;28;20033;-50
2024/01/31 11:08:39;;;;;;;27.60;12.13;;;;;;;;;;4989969;28;20030;-47
2024/01/31 11:11:08;;;;;;;27.67;11.73;;;;;;;;;;4994152;28;20038;-50
2024/01/31 11:13:34;;;;;;;28.40;11.93;;;;;;;;;;5004094;28;20026;-47
2024/01/31 11:16:00;;;;;;;27.73;11.77;;;;;;;;;;4997846;28;20033;-49
2024/01/31 11:18:25;;;;;;;27.63;11.77;;;;;;;;;;4999096;28;20025;-51
2024/01/31 11:20:50;;;;;;;26.73;11.73;;;;;;;;;;5000086;28;20367;-51
2024/01/31 11:23:16;;;;;;;30.13;13.80;;;;;;;;;;5001980;28;20272;-49
2024/01/31 11:25:42;;;;;;;27.65;12.00;;;;;;;;;;5006809;28;20033;-48
2024/01/31 11:28:09;;;;;;;27.42;10.93;;;;;;;;;;4999595;28;20553;-49
2024/01/31 11:30:34;;;;;;;26.63;12.13;;;;;;;;;;4990176;28;20125;-46
2024/01/31 11:33:01;;;;;;;25.63;11.25;;;;;;;;;;4996962;28;20495;-48
2024/01/31 11:35:28;;;;;;;26.60;11.10;;;;;;;;;;5008628;28;20088;-47
2024/01/31 11:37:54;;;;;;;25.17;10.98;;;;;;;;;;5005367;28;20033;-47
2024/01/31 11:40:19;;;;;;;25.33;11.02;;;;;;;;;;4992435;28;20026;-48
2024/01/31 11:42:46;;;;;;;25.98;11.48;;;;;;;;;;4991136;28;20022;-48
2024/01/31 11:45:11;;;;;;;27.85;12.13;;;;;;;;;;4997326;28;20069;-49
2024/01/31 11:47:37;;;;;;;24.47;10.90;;;;;;;;;;4992426;28;20018;-49
2024/01/31 11:50:03;;;;;;;27.67;12.07;;;;;;;;;;4990389;28;20653;-49
2024/01/31 11:52:28;;;;;;;25.92;11.65;;;;;;;;;;4989689;28;20033;-48
2024/01/31 11:54:53;;;;;;;27.00;11.53;;;;;;;;;;4996145;28;20651;-47
2024/01/31 11:57:18;;;;;;;28.37;12.77;;;;;;;;;;5008861;28;20018;-48
2024/01/31 11:59:44;;;;;;;26.60;11.95;;;;;;;;;;5002561;28;20517;-47
2024/01/31 12:02:09;;;;;;;27.00;13.07;;;;;;;;;;5009903;28;20516;-49
2024/01/31 12:04:34;;;;;;;26.37;11.90;;;;;;;;;;5003506;28;20022;-48
2024/01/31 12:07:03;;;;;;;26.90;11.57;;;;;;;;;;4999140;28;20277;-48
2024/01/31 12:09:29;;;;;;;25.73;10.77;;;;;;;;;;5000378;28;20293;-48
2024/01/31 12:11:54;;;;;;;24.17;11.10;;;;;;;;;;5002659;28;20036;-50
2024/01/31 12:14:19;;;;;;;25.20;10.50;;;;;;;;;;5001014;28;20277;-49
2024/01/31 12:16:44;;;;;;;25.80;11.63;;;;;;;;;;4995966;28;20022;-49
2024/01/31 12:19:10;;;;;;;26.58;11.15;;;;;;;;;;5008820;28;20034;-48
2024/01/31 12:21:42;;;;;;;27.33;12.50;;;;;;;;;;5010196;28;20111;-49
2024/01/31 12:24:07;;;;;;;26.48;11.95;;;;;;;;;;5010298;28;20076;-48
2024/01/31 12:26:32;;;;;;;26.40;12.10;;;;;;;;;;5009507;28;20042;-50
2024/01/31 12:28:57;;;;;;;25.47;11.93;;;;;;;;;;5008811;28;20029;-48
2024/01/31 12:31:23;;;;;;;25.47;12.40;;;;;;;;;;5008580;28;20713;-46
2024/01/31 12:33:48;;;;;;;25.50;11.63;;;;;;;;;;5008519;28;20311;-46
2024/01/31 12:36:13;;;;;;;25.03;11.23;;;;;;;;;;5009067;28;20489;-48
2024/01/31 12:38:38;;;;;;;23.95;10.73;;;;;;;;;;5008219;28;20272;-51
2024/01/31 12:41:04;;;;;;;23.40;10.45;;;;;;;;;;5008109;28;20033;-49
2024/01/31 12:43:29;;;;;;;22.05;9.80;;;;;;;;;;5008383;28;20093;-48
2024/01/31 12:45:54;;;;;;;22.37;9.40;;;;;;;;;;5009388;28;20120;-48
2024/01/31 12:48:20;;;;;;;21.77;9.37;;;;;;;;;;5012214;28;20645;-47
2024/01/31 12:50:45;;;;;;;23.70;10.48;;;;;;;;;;5012276;28;20276;-47
2024/01/31 12:53:10;;;;;;;22.90;9.93;;;;;;;;;;5011335;28;20048;-48
2024/01/31 12:55:35;;;;;;;22.60;10.17;;;;;;;;;;5012625;28;20073;-48
2024/01/31 12:58:00;;;;;;;24.80;10.32;;;;;;;;;;5010902;28;20356;-49
2024/01/31 13:00:26;;;;;;;22.92;9.23;;;;;;;;;;5012243;28;20096;-49
2024/01/31 13:02:51;;;;;;;23.57;10.10;;;;;;;;;;5012429;28;20054;-46
2024/01/31 13:05:16;;;;;;;22.60;8.97;;;;;;;;;;5012121;28;20291;-49
2024/01/31 13:07:41;;;;;;;21.83;9.15;;;;;;;;;;5011597;28;20745;-50
2024/01/31 13:10:07;;;;;;;21.10;8.85;;;;;;;;;;5012400;28;20041;-51
2024/01/31 13:12:32;;;;;;;22.33;8.77;;;;;;;;;;5011970;28;20109;-48
2024/01/31 13:14:59;;;;;;;21.83;8.37;;;;;;;;;;5012077;28;20018;-49
2024/01/31 13:17:24;;;;;;;21.63;8.25;;;;;;;;;;5011333;28;20021;-49
2024/01/31 13:19:50;;;;;;;21.03;7.93;;;;;;;;;;5011717;28;20422;-47
2024/01/31 13:22:15;;;;;;;20.65;7.57;;;;;;;;;;5010841;28;20812;-49
2024/01/31 13:24:40;;;;;;;19.43;6.90;;;;;;;;;;5011817;28;20057;-51
2024/01/31 13:27:06;;;;;;;20.87;7.80;;;;;;;;;;5011890;28;20263;-50
2024/01/31 13:29:31;;;;;;;19.85;5.90;;;;;;;;;;5011632;28;20283;-51
2024/01/31 13:31:56;;;;;;;20.63;6.77;;;;;;;;;;5011834;28;20445;-48
2024/01/31 13:34:21;;;;;;;21.00;6.80;;;;;;;;;;5011591;28;20372;-48
2024/01/31 13:36:46;;;;;;;18.57;6.07;;;;;;;;;;5011023;28;20022;-46
2024/01/31 13:39:12;;;;;;;18.13;5.23;;;;;;;;;;5011447;28;20752;-51
2024/01/31 13:41:37;;;;;;;17.33;4.82;;;;;;;;;;5011497;28;20752;-49
2024/01/31 13:44:03;;;;;;;13.77;3.87;;;;;;;;;;5011382;28;20036;-49
2024/01/31 13:46:28;;;;;;;16.92;4.80;;;;;;;;;;5011162;28;20072;-47
2024/01/31 13:48:53;;;;;;;10.73;3.93;;;;;;;;;;5011311;28;20108;-49
2024/01/31 13:51:18;;;;;;;13.82;3.85;;;;;;;;;;5011313;28;20390;-48
2024/01/31 13:53:44;;;;;;;13.70;3.90;;;;;;;;;;5010662;28;20421;-48
2024/01/31 13:56:09;;;;;;;13.82;3.88;;;;;;;;;;5010683;28;20327;-47
2024/01/31 13:58:35;;;;;;;13.18;3.90;;;;;;;;;;5009214;28;20609;-47
2024/01/31 14:01:00;;;;;;;16.33;4.38;;;;;;;;;;5011092;28;20108;-49
2024/01/31 14:03:26;;;;;;;14.00;3.80;;;;;;;;;;5010989;28;20018;-50
2024/01/31 14:05:51;;;;;;;15.00;4.27;;;;;;;;;;5010499;28;20025;-50
2024/01/31 14:08:16;;;;;;;13.68;4.00;;;;;;;;;;5010635;28;20485;-49
2024/01/31 14:10:41;;;;;;;14.18;4.30;;;;;;;;;;5011063;28;20022;-47
2024/01/31 14:13:06;;;;;;;13.17;3.93;;;;;;;;;;5006468;28;20024;-46
2024/01/31 14:15:33;;;;;;;13.68;4.28;;;;;;;;;;5000600;28;20390;-47